Terminal Aerodrome Forecast
Issued by NWS Amarillo, TX

Home | Current Version | Previous Version | Text Only | Print | Product List | Glossary On
Versions: 1 2 3 4 5 6 7 8 9 10 11 12 13 14 15
000
FTUS44 KAMA 300500
TAFDHT
TAF
KDHT 300521Z 3006/3106 19006KT P6SM BKN110
     FM301600 19014KT P6SM OVC050
     FM302000 19014KT P6SM OVC015
      TEMPO 3020/3024 5SM -RASN BR
     FM310000 19012KT 5SM -RASN BR OVC010=

USA.gov is the U.S. government's official web portal to all federal, state and local government web resources and services.